createdAt,value
2019-04-16T00:02:24.002Z,80.50
2019-04-16T00:05:04.307Z,80.80
2019-04-16T00:07:59.692Z,81.60
2019-04-16T00:10:58.264Z,82.50
2019-04-16T00:13:34.967Z,83.50
2019-04-16T00:16:05.421Z,84.00
2019-04-16T00:18:35.810Z,86.10
2019-04-16T00:21:38.504Z,87.70
2019-04-16T00:24:30.683Z,88.60
2019-04-16T00:27:01.058Z,90.30
2019-04-16T00:29:33.131Z,90.80
2019-04-16T00:32:09.139Z,92.20
2019-04-16T00:34:37.669Z,92.70
2019-04-16T00:37:08.442Z,93.60
2019-04-16T00:39:38.788Z,94.30
2019-04-16T00:42:09.008Z,95.00
2019-04-16T00:44:39.275Z,95.00
2019-04-16T00:47:09.967Z,95.40
2019-04-16T00:49:40.227Z,96.40
2019-04-16T00:52:10.509Z,97.10
2019-04-16T00:54:42.447Z,97.70
2019-04-16T00:57:17.577Z,99.20
2019-04-16T00:59:44.535Z,99.90
2019-04-16T01:02:14.913Z,99.90
2019-04-16T01:04:45.175Z,99.90
2019-04-16T01:07:15.908Z,99.90
2019-04-16T01:09:46.145Z,99.90
2019-04-16T01:12:16.524Z,99.90
2019-04-16T01:14:47.277Z,99.90
2019-04-16T01:17:17.575Z,99.90
2019-04-16T01:19:47.849Z,99.90
2019-04-16T01:22:19.416Z,99.90
2019-04-16T01:24:52.583Z,99.90
2019-04-16T01:27:30.043Z,99.90
2019-04-16T01:30:05.090Z,99.90
2019-04-16T01:32:51.433Z,99.90
2019-04-16T01:35:40.917Z,99.90
2019-04-16T01:38:39.061Z,99.90
2019-04-16T01:41:12.500Z,99.90
2019-04-16T01:43:42.907Z,99.90
2019-04-16T01:46:14.765Z,99.90
2019-04-16T01:48:45.358Z,99.90
2019-04-16T01:51:16.247Z,99.90
2019-04-16T01:53:49.505Z,99.90
2019-04-16T01:56:18.958Z,99.90
2019-04-16T01:58:49.255Z,99.90
2019-04-16T02:01:19.508Z,99.90
2019-04-16T02:03:49.754Z,99.90
2019-04-16T02:06:20.079Z,99.90
2019-04-16T02:08:50.384Z,99.90
2019-04-16T02:11:20.640Z,99.90
2019-04-16T02:13:51.106Z,99.90
2019-04-16T02:16:22.342Z,99.90
2019-04-16T02:18:53.620Z,99.90
2019-04-16T02:21:24.115Z,99.90
2019-04-16T02:23:54.419Z,99.90
2019-04-16T02:26:24.692Z,99.90
2019-04-16T02:28:56.514Z,99.90
2019-04-16T02:31:26.816Z,99.90
2019-04-16T02:33:57.146Z,99.90
2019-04-16T02:36:27.429Z,99.90
2019-04-16T02:38:57.755Z,99.90
2019-04-16T02:41:28.007Z,99.90
2019-04-16T02:43:58.495Z,99.90
2019-04-16T02:46:32.074Z,99.90
2019-04-16T02:49:00.890Z,99.90
2019-04-16T02:52:06.647Z,99.90
2019-04-16T02:55:09.523Z,99.90
2019-04-16T02:57:43.582Z,99.90
2019-04-16T03:00:42.609Z,99.90
2019-04-16T03:03:18.791Z,99.90
2019-04-16T03:05:52.031Z,99.90
2019-04-16T03:08:22.519Z,99.90
2019-04-16T03:10:52.678Z,99.90
2019-04-16T03:13:24.036Z,99.90
2019-04-16T03:16:22.787Z,99.90
2019-04-16T03:18:57.815Z,99.90
2019-04-16T03:21:28.245Z,99.90
2019-04-16T03:23:58.742Z,99.90
2019-04-16T03:26:29.092Z,99.90
2019-04-16T03:28:59.572Z,99.90
2019-04-16T03:31:30.143Z,99.90
2019-04-16T03:34:00.477Z,99.90
2019-04-16T03:36:30.803Z,99.90
2019-04-16T03:39:01.434Z,99.90
2019-04-16T03:41:33.142Z,99.90
2019-04-16T03:44:04.976Z,99.90
2019-04-16T03:46:35.649Z,99.90
2019-04-16T03:49:08.324Z,99.90
2019-04-16T03:51:38.622Z,99.90
2019-04-16T03:54:08.879Z,99.90
2019-04-16T03:56:39.454Z,99.90
2019-04-16T03:59:11.836Z,99.90
2019-04-16T04:01:45.515Z,99.90
2019-04-16T04:04:13.560Z,99.90
2019-04-16T04:06:43.790Z,99.90
2019-04-16T04:09:14.120Z,99.90
2019-04-16T04:11:44.724Z,99.90
2019-04-16T04:14:15.150Z,99.90
2019-04-16T04:16:45.430Z,99.90
2019-04-16T04:19:16.097Z,99.90
2019-04-16T04:21:50.616Z,99.90
2019-04-16T04:24:19.845Z,99.90
2019-04-16T04:26:50.398Z,99.90
2019-04-16T04:29:24.091Z,99.90
2019-04-16T04:31:53.398Z,99.90
2019-04-16T04:34:23.665Z,99.90
2019-04-16T04:36:58.855Z,99.90
2019-04-16T04:39:26.828Z,99.90
2019-04-16T04:41:57.264Z,99.90
2019-04-16T04:44:27.758Z,99.90
2019-04-16T04:46:58.007Z,99.90
2019-04-16T04:49:30.409Z,99.90
2019-04-16T04:52:01.525Z,99.90
2019-04-16T04:54:31.778Z,99.90
2019-04-16T04:57:02.270Z,99.90
2019-04-16T04:59:36.523Z,99.90
2019-04-16T05:02:04.611Z,99.90
2019-04-16T05:05:03.040Z,99.90
2019-04-16T05:07:33.326Z,99.90
2019-04-16T05:10:04.576Z,99.90
2019-04-16T05:12:35.893Z,99.90
2019-04-16T05:15:06.699Z,99.90
2019-04-16T05:17:38.597Z,99.90
2019-04-16T05:20:08.860Z,99.90
2019-04-16T05:22:39.345Z,99.90
2019-04-16T05:25:09.938Z,99.90
2019-04-16T05:27:41.601Z,99.90
2019-04-16T05:30:13.207Z,99.90
2019-04-16T05:32:43.484Z,99.90
2019-04-16T05:35:14.309Z,99.90
2019-04-16T05:37:44.543Z,99.90
2019-04-16T05:40:15.343Z,99.90
2019-04-16T05:42:45.611Z,99.90
2019-04-16T05:45:15.971Z,99.90
2019-04-16T05:47:48.982Z,99.90
2019-04-16T05:50:18.646Z,99.90
2019-04-16T05:52:49.086Z,99.90
2019-04-16T05:55:30.875Z,99.90
2019-04-16T05:58:01.345Z,99.90
2019-04-16T06:00:38.498Z,99.90
2019-04-16T06:03:09.023Z,99.90
2019-04-16T06:05:39.634Z,99.90
2019-04-16T06:08:11.301Z,99.90
2019-04-16T06:10:42.004Z,99.90
2019-04-16T06:13:44.536Z,99.90
2019-04-16T06:16:39.991Z,99.90
2019-04-16T06:19:46.792Z,99.90
2019-04-16T06:22:27.965Z,99.90
2019-04-16T06:25:23.748Z,99.90
2019-04-16T06:28:13.513Z,99.90
2019-04-16T06:31:04.997Z,99.90
2019-04-16T06:33:55.712Z,99.90
2019-04-16T06:36:49.067Z,99.90
2019-04-16T06:39:38.502Z,99.90
2019-04-16T06:42:38.636Z,99.90
2019-04-16T06:45:22.421Z,99.90
2019-04-16T06:47:59.678Z,99.90
2019-04-16T06:50:58.031Z,99.90
2019-04-16T06:54:02.532Z,99.90
2019-04-16T06:56:42.714Z,99.90
2019-04-16T06:59:26.575Z,99.90
2019-04-16T07:02:15.531Z,97.20
2019-04-16T07:05:03.870Z,97.40
2019-04-16T07:08:00.789Z,96.90
2019-04-16T07:10:44.342Z,94.60
2019-04-16T07:13:11.159Z,93.20
2019-04-16T07:15:39.938Z,91.70
2019-04-16T07:18:10.152Z,92.50
2019-04-16T07:20:42.298Z,91.20
2019-04-16T07:23:12.396Z,89.60
2019-04-16T07:25:44.221Z,88.00
2019-04-16T07:28:30.843Z,87.60
2019-04-16T07:31:33.433Z,87.50
2019-04-16T07:34:22.955Z,84.30
2019-04-16T07:37:06.763Z,79.60
2019-04-16T07:39:46.333Z,79.90
2019-04-16T07:42:26.348Z,79.10
2019-04-16T07:45:13.878Z,77.60
2019-04-16T07:48:22.511Z,76.80
2019-04-16T07:51:08.702Z,76.70
2019-04-16T07:54:03.379Z,74.70
2019-04-16T07:56:34.442Z,75.20
2019-04-16T07:59:04.690Z,74.90
2019-04-16T08:01:35.242Z,73.00
2019-04-16T08:04:05.745Z,69.10
2019-04-16T08:06:36.490Z,68.50
2019-04-16T08:09:08.871Z,69.40
2019-04-16T08:11:40.396Z,70.50
2019-04-16T08:14:14.108Z,70.70
2019-04-16T08:16:47.701Z,70.40
2019-04-16T08:19:16.149Z,70.70
2019-04-16T08:21:46.947Z,69.20
2019-04-16T08:24:24.820Z,70.90
2019-04-16T08:26:54.383Z,68.20
2019-04-16T08:29:26.475Z,67.50
2019-04-16T08:31:57.892Z,66.70
2019-04-16T08:34:29.410Z,67.00
2019-04-16T08:37:00.243Z,66.40
2019-04-16T08:39:30.438Z,65.00
2019-04-16T08:42:01.453Z,64.30
2019-04-16T08:44:35.252Z,62.50
2019-04-16T08:47:04.015Z,62.50
2019-04-16T08:49:37.392Z,61.60
2019-04-16T08:52:10.264Z,61.70
2019-04-16T08:54:40.525Z,60.00
2019-04-16T08:57:10.803Z,59.10
2019-04-16T08:59:43.939Z,59.10
2019-04-16T09:02:14.565Z,58.80
2019-04-16T09:04:44.811Z,59.30
2019-04-16T09:07:33.913Z,59.40
2019-04-16T09:10:17.474Z,59.50
2019-04-16T09:12:42.104Z,59.60
2019-04-16T09:15:12.635Z,59.10
2019-04-16T09:17:49.027Z,58.90
2019-04-16T09:20:25.457Z,58.70
2019-04-16T09:22:58.776Z,58.30
2019-04-16T09:25:55.539Z,57.60
2019-04-16T09:28:50.883Z,58.70
2019-04-16T09:31:42.997Z,58.40
2019-04-16T09:34:24.429Z,59.20
2019-04-16T09:37:25.487Z,57.20
2019-04-16T09:40:17.898Z,56.00
2019-04-16T09:42:44.753Z,57.30
2019-04-16T09:45:18.994Z,57.70
2019-04-16T09:47:49.161Z,57.00
2019-04-16T09:50:19.747Z,56.50
2019-04-16T09:52:52.481Z,55.60
2019-04-16T09:55:22.081Z,56.20
2019-04-16T09:57:53.582Z,55.70
2019-04-16T10:00:30.525Z,55.00
2019-04-16T10:03:09.144Z,54.20
2019-04-16T10:05:39.563Z,55.50
2019-04-16T10:08:12.765Z,55.20
2019-04-16T10:10:41.834Z,55.00
2019-04-16T10:13:12.153Z,55.00
2019-04-16T10:15:42.618Z,55.30
2019-04-16T10:18:16.434Z,54.40
2019-04-16T10:20:46.923Z,55.10
2019-04-16T10:23:24.594Z,54.30
2019-04-16T10:25:54.984Z,53.80
2019-04-16T10:28:29.415Z,52.70
2019-04-16T10:30:59.877Z,53.00
2019-04-16T10:33:30.281Z,52.30
2019-04-16T10:36:01.038Z,52.00
2019-04-16T10:38:50.148Z,52.90
2019-04-16T10:41:41.607Z,52.60
2019-04-16T10:44:33.461Z,53.40
2019-04-16T10:47:29.100Z,53.50
2019-04-16T10:50:11.992Z,52.70
2019-04-16T10:53:00.266Z,52.30
2019-04-16T10:56:02.666Z,52.30
2019-04-16T10:58:50.945Z,53.40
2019-04-16T11:01:58.823Z,53.50
2019-04-16T11:04:52.370Z,53.60
2019-04-16T11:07:26.218Z,53.20
2019-04-16T11:09:56.561Z,52.70
2019-04-16T11:12:27.903Z,53.40
2019-04-16T11:14:58.194Z,53.20
2019-04-16T11:17:29.267Z,53.80
2019-04-16T11:20:00.136Z,53.30
2019-04-16T11:22:32.207Z,52.80
2019-04-16T11:25:03.045Z,51.80
2019-04-16T11:27:35.762Z,51.80
2019-04-16T11:30:09.166Z,52.50
2019-04-16T11:32:40.280Z,52.60
2019-04-16T11:35:13.030Z,53.60
2019-04-16T11:37:44.712Z,53.70
2019-04-16T11:40:16.929Z,52.90
2019-04-16T11:42:47.437Z,53.00
2019-04-16T11:45:19.572Z,53.50
2019-04-16T11:47:49.936Z,52.90
2019-04-16T11:50:20.262Z,52.50
2019-04-16T11:52:50.811Z,52.50
2019-04-16T11:55:21.092Z,53.00
2019-04-16T11:57:51.579Z,53.60
2019-04-16T12:00:30.993Z,53.70
2019-04-16T12:03:19.791Z,53.60
2019-04-16T12:06:26.521Z,54.30
2019-04-16T12:09:03.157Z,53.80
2019-04-16T12:11:54.013Z,54.40
2019-04-16T12:14:42.165Z,56.50
2019-04-16T12:17:32.285Z,57.40
2019-04-16T12:20:21.461Z,56.90
2019-04-16T12:23:13.525Z,56.50
2019-04-16T12:26:01.322Z,56.10
2019-04-16T12:28:48.148Z,56.60
2019-04-16T12:31:35.406Z,57.60
2019-04-16T12:34:22.402Z,58.90
2019-04-16T12:37:03.332Z,60.00
2019-04-16T12:39:43.956Z,60.60
2019-04-16T12:42:41.258Z,60.80
2019-04-16T12:45:20.070Z,61.10
2019-04-16T12:48:04.865Z,60.60
2019-04-16T12:50:46.965Z,61.10
2019-04-16T12:53:23.626Z,62.80
2019-04-16T12:56:15.794Z,63.40
2019-04-16T12:58:51.626Z,63.20
2019-04-16T13:01:40.865Z,63.90
2019-04-16T13:04:39.529Z,64.10
2019-04-16T13:07:22.921Z,66.50
2019-04-16T13:09:57.630Z,67.00
2019-04-16T13:13:01.896Z,67.60
2019-04-16T13:15:51.583Z,68.50
2019-04-16T13:18:46.901Z,72.00
2019-04-16T13:21:19.723Z,71.90
2019-04-16T13:24:09.077Z,72.80
2019-04-16T13:26:58.310Z,74.20
2019-04-16T13:29:31.046Z,76.60
2019-04-16T13:32:01.441Z,78.00
2019-04-16T13:34:31.782Z,85.70
2019-04-16T13:37:02.254Z,93.90
2019-04-16T13:39:54.694Z,99.90
2019-04-16T13:42:25.626Z,99.90
2019-04-16T13:45:15.803Z,99.90
2019-04-16T13:47:46.009Z,99.90
2019-04-16T13:50:24.173Z,99.90
2019-04-16T13:53:00.619Z,99.90
2019-04-16T13:55:44.591Z,99.90
2019-04-16T13:58:25.973Z,99.90
2019-04-16T14:01:02.614Z,99.90
2019-04-16T14:03:33.248Z,99.90
2019-04-16T14:06:03.548Z,99.90
2019-04-16T14:08:34.341Z,99.90
2019-04-16T14:11:07.775Z,99.90
2019-04-16T14:13:38.131Z,99.90
2019-04-16T14:16:12.752Z,99.90
2019-04-16T14:18:42.503Z,99.90
2019-04-16T14:21:13.000Z,99.90
2019-04-16T14:23:43.402Z,99.90
2019-04-16T14:26:14.040Z,99.90
2019-04-16T14:28:51.985Z,99.90
2019-04-16T14:31:18.557Z,99.90
2019-04-16T14:34:08.735Z,99.90
2019-04-16T14:36:40.342Z,99.90
2019-04-16T14:39:24.972Z,99.90
2019-04-16T14:41:55.438Z,99.90
2019-04-16T14:44:27.686Z,99.90
2019-04-16T14:47:00.645Z,99.90
2019-04-16T14:49:30.181Z,99.90
2019-04-16T14:52:02.132Z,99.90
2019-04-16T14:54:54.604Z,99.90
2019-04-16T14:57:24.911Z,99.90
2019-04-16T15:00:23.417Z,99.90
2019-04-16T15:03:09.344Z,99.90
2019-04-16T15:05:49.804Z,99.90
2019-04-16T15:08:42.140Z,99.90
2019-04-16T15:11:29.506Z,99.90
2019-04-16T15:14:11.865Z,99.90
2019-04-16T15:16:50.637Z,99.90
2019-04-16T15:19:36.910Z,99.90
2019-04-16T15:22:31.458Z,99.90
2019-04-16T15:25:23.497Z,99.90
2019-04-16T15:28:12.090Z,99.90
2019-04-16T15:30:53.486Z,99.90
2019-04-16T15:33:41.387Z,99.90
2019-04-16T15:36:19.413Z,99.90
2019-04-16T15:38:58.911Z,99.90
2019-04-16T15:41:48.383Z,99.90
2019-04-16T15:44:23.765Z,99.90
2019-04-16T15:47:15.033Z,99.90
2019-04-16T15:49:58.697Z,99.90
2019-04-16T15:52:41.362Z,99.90
2019-04-16T15:55:24.223Z,99.90
2019-04-16T15:58:21.656Z,99.90
2019-04-16T16:01:16.763Z,99.90
2019-04-16T16:04:09.438Z,99.90
2019-04-16T16:06:51.781Z,99.90
2019-04-16T16:09:26.605Z,99.90
2019-04-16T16:12:09.797Z,99.90
2019-04-16T16:14:40.673Z,99.90
2019-04-16T16:17:11.559Z,99.90
2019-04-16T16:19:43.193Z,99.90
2019-04-16T16:22:16.772Z,99.90
2019-04-16T16:24:49.015Z,99.90
2019-04-16T16:27:23.563Z,99.90
2019-04-16T16:29:54.416Z,99.90
2019-04-16T16:32:25.484Z,99.90
2019-04-16T16:34:56.176Z,99.90
2019-04-16T16:37:26.582Z,99.90
2019-04-16T16:39:57.679Z,99.90
2019-04-16T16:42:28.507Z,99.90
2019-04-16T16:45:01.711Z,99.90
2019-04-16T16:47:40.727Z,99.90
2019-04-16T16:50:15.128Z,99.90
2019-04-16T16:53:15.109Z,99.90
2019-04-16T16:55:48.334Z,99.90
2019-04-16T16:58:44.650Z,99.90
2019-04-16T17:01:36.984Z,99.90
2019-04-16T17:04:14.335Z,99.90
2019-04-16T17:06:45.123Z,99.90
2019-04-16T17:09:36.044Z,99.90
2019-04-16T17:12:10.058Z,99.90
2019-04-16T17:14:40.851Z,99.90
2019-04-16T17:17:14.916Z,99.90
2019-04-16T17:19:44.762Z,99.90
2019-04-16T17:22:17.428Z,99.90
2019-04-16T17:24:47.270Z,99.90
2019-04-16T17:27:17.817Z,99.90
2019-04-16T17:29:49.867Z,99.90
2019-04-16T17:32:21.189Z,99.90
2019-04-16T17:34:53.725Z,99.90
2019-04-16T17:37:27.964Z,99.90
2019-04-16T17:39:59.816Z,99.90
2019-04-16T17:42:37.713Z,99.90
2019-04-16T17:45:27.109Z,99.90
2019-04-16T17:48:02.869Z,99.90
2019-04-16T17:50:51.566Z,99.90
2019-04-16T17:53:34.905Z,99.90
2019-04-16T17:56:23.189Z,99.90
2019-04-16T17:58:59.944Z,99.90
2019-04-16T18:01:48.912Z,99.90
2019-04-16T18:04:36.786Z,99.90
2019-04-16T18:07:38.217Z,99.90
2019-04-16T18:10:40.272Z,99.90
2019-04-16T18:13:31.892Z,99.90
2019-04-16T18:16:20.981Z,99.90
2019-04-16T18:19:04.156Z,99.90
2019-04-16T18:21:45.706Z,99.90
2019-04-16T18:24:23.973Z,99.90
2019-04-16T18:27:15.507Z,99.90
2019-04-16T18:29:58.084Z,99.90
2019-04-16T18:32:57.047Z,99.90
2019-04-16T18:35:52.896Z,99.90
2019-04-16T18:38:56.317Z,99.90
2019-04-16T18:41:40.242Z,99.90
2019-04-16T18:44:32.593Z,99.90
2019-04-16T18:47:20.840Z,99.90
2019-04-16T18:49:52.535Z,99.90
2019-04-16T18:52:23.339Z,99.90
2019-04-16T18:54:55.309Z,99.90
2019-04-16T18:57:28.120Z,99.90
2019-04-16T18:59:58.950Z,99.90
2019-04-16T19:02:31.000Z,99.90
2019-04-16T19:05:01.469Z,99.90
2019-04-16T19:07:36.176Z,99.90
2019-04-16T19:10:08.054Z,99.90
2019-04-16T19:12:38.494Z,99.90
2019-04-16T19:15:09.150Z,99.90
2019-04-16T19:17:39.812Z,99.90
2019-04-16T19:20:17.148Z,99.90
2019-04-16T19:22:46.540Z,99.90
2019-04-16T19:25:17.082Z,99.90
2019-04-16T19:27:49.087Z,99.90
2019-04-16T19:30:22.658Z,99.90
2019-04-16T19:32:52.684Z,99.90
2019-04-16T19:35:23.211Z,99.90
2019-04-16T19:37:53.624Z,99.90
2019-04-16T19:40:23.948Z,99.90
2019-04-16T19:42:54.673Z,99.90
2019-04-16T19:45:26.343Z,99.90
2019-04-16T19:48:00.560Z,99.90
2019-04-16T19:50:35.860Z,99.90
2019-04-16T19:53:01.911Z,99.90
2019-04-16T19:55:32.577Z,99.90
2019-04-16T19:58:03.603Z,99.90
2019-04-16T20:00:34.484Z,99.90
2019-04-16T20:03:05.332Z,99.90
2019-04-16T20:05:35.955Z,99.90
2019-04-16T20:08:06.266Z,99.90
2019-04-16T20:10:36.613Z,99.90
2019-04-16T20:13:07.115Z,99.90
2019-04-16T20:15:43.223Z,99.90
2019-04-16T20:18:10.517Z,99.90
2019-04-16T20:20:40.823Z,99.90
2019-04-16T20:23:11.272Z,99.90
2019-04-16T20:25:41.528Z,99.90
2019-04-16T20:28:15.313Z,99.90
2019-04-16T20:30:44.178Z,99.90
2019-04-16T20:33:14.492Z,99.90
2019-04-16T20:35:44.833Z,99.90
2019-04-16T20:38:17.074Z,99.90
2019-04-16T20:40:47.821Z,99.90
2019-04-16T20:43:18.144Z,99.90
2019-04-16T20:45:49.216Z,99.90
2019-04-16T20:48:20.895Z,99.90
2019-04-16T20:50:53.018Z,99.90
2019-04-16T20:53:23.603Z,99.90
2019-04-16T20:55:53.905Z,99.90
2019-04-16T20:58:24.504Z,99.90
2019-04-16T21:00:57.109Z,99.90
2019-04-16T21:03:30.818Z,99.90
2019-04-16T21:06:00.151Z,99.90
2019-04-16T21:08:30.894Z,99.90
2019-04-16T21:11:01.351Z,99.90
2019-04-16T21:13:31.621Z,99.90
2019-04-16T21:16:03.656Z,99.90
2019-04-16T21:18:36.230Z,99.90
2019-04-16T21:21:06.891Z,99.90
2019-04-16T21:23:37.940Z,99.90
2019-04-16T21:26:08.457Z,99.90
2019-04-16T21:28:48.622Z,99.90
2019-04-16T21:31:26.274Z,99.90
2019-04-16T21:34:15.795Z,99.90
2019-04-16T21:36:54.007Z,99.90
2019-04-16T21:39:29.042Z,99.90
2019-04-16T21:42:02.809Z,99.90
2019-04-16T21:44:31.534Z,99.90
2019-04-16T21:47:01.970Z,99.90
2019-04-16T21:49:38.822Z,99.90
2019-04-16T21:52:08.023Z,99.90
2019-04-16T21:54:39.807Z,99.90
2019-04-16T21:57:13.552Z,99.90
2019-04-16T21:59:42.230Z,99.90
2019-04-16T22:02:21.095Z,99.90
2019-04-16T22:04:51.546Z,99.90
2019-04-16T22:07:24.689Z,99.90
2019-04-16T22:09:53.797Z,99.90
2019-04-16T22:12:25.102Z,99.90
2019-04-16T22:14:55.965Z,99.90
2019-04-16T22:17:29.837Z,99.90
2019-04-16T22:20:04.090Z,99.90
2019-04-16T22:22:33.857Z,99.90
2019-04-16T22:25:04.460Z,99.90
2019-04-16T22:27:36.877Z,99.90
2019-04-16T22:30:07.215Z,99.90
2019-04-16T22:32:37.622Z,99.90
2019-04-16T22:35:08.932Z,99.90
2019-04-16T22:37:39.222Z,99.90
2019-04-16T22:40:27.744Z,99.90
2019-04-16T22:43:15.804Z,99.90
2019-04-16T22:46:03.388Z,99.90
2019-04-16T22:48:33.937Z,99.90
2019-04-16T22:51:09.332Z,99.90
2019-04-16T22:53:36.234Z,99.90
2019-04-16T22:56:07.017Z,99.90
2019-04-16T22:58:49.819Z,99.90
2019-04-16T23:01:22.020Z,99.90
2019-04-16T23:03:54.431Z,99.90
2019-04-16T23:06:25.104Z,99.90
2019-04-16T23:08:55.380Z,99.90
2019-04-16T23:11:26.824Z,99.90
2019-04-16T23:13:57.127Z,99.90
2019-04-16T23:16:28.047Z,99.90
2019-04-16T23:18:58.594Z,99.90
2019-04-16T23:21:28.870Z,99.90
2019-04-16T23:23:59.150Z,99.90
2019-04-16T23:26:32.147Z,99.90
2019-04-16T23:29:01.300Z,99.90
2019-04-16T23:31:31.630Z,99.90
2019-04-16T23:34:06.421Z,99.90
2019-04-16T23:36:34.936Z,99.90
2019-04-16T23:39:06.544Z,99.90
2019-04-16T23:41:37.502Z,99.90
2019-04-16T23:44:26.771Z,99.90
2019-04-16T23:47:19.378Z,99.90
2019-04-16T23:49:55.987Z,99.90
2019-04-16T23:52:45.614Z,99.90
2019-04-16T23:55:33.698Z,99.90
2019-04-16T23:58:32.400Z,99.90
